Time;durP1;ratioP1;P1;durP2;ratioP2;P2;SDS_P1;SDS_P2;PMS_P1;PMS_P2;Temp;Humidity;BMP_temperature;BMP_pressure;BME280_temperature;BME280_humidity;BME280_pressure;Samples;Min_cycle;Max_cycle;Signal;HPM_P1;HPM_P2
2021/04/26 00:00:28;;;;;;;10.75;4.50;;;3.10;86.30;;;;;;5036483;28;20050;-40
2021/04/26 00:03:00;;;;;;;12.50;4.47;;;3.00;86.80;;;;;;5037854;28;20054;-40
2021/04/26 00:05:33;;;;;;;11.18;4.38;;;3.10;87.60;;;;;;5046734;28;20512;-40
2021/04/26 00:08:00;;;;;;;9.15;4.00;;;3.00;88.00;;;;;;5037408;28;20053;-40
2021/04/26 00:10:33;;;;;;;9.02;4.43;;;3.00;87.80;;;;;;5034865;28;20073;-40
2021/04/26 00:13:02;;;;;;;14.57;4.85;;;2.90;87.10;;;;;;5036469;28;20048;-40
2021/04/26 00:15:31;;;;;;;13.15;4.30;;;2.90;86.90;;;;;;5039419;28;20501;-40
2021/04/26 00:18:04;;;;;;;11.95;4.60;;;2.80;87.30;;;;;;5036684;28;20045;-41
2021/04/26 00:20:33;;;;;;;8.73;4.00;;;2.80;87.20;;;;;;5033208;28;20064;-41
2021/04/26 00:23:08;;;;;;;7.05;3.95;;;2.70;87.10;;;;;;5036630;28;20052;-40
2021/04/26 00:25:36;;;;;;;11.65;4.20;;;2.70;87.80;;;;;;5032955;28;20079;-41
2021/04/26 00:28:07;;;;;;;8.10;4.13;;;2.70;88.00;;;;;;5036263;28;20052;-40
2021/04/26 00:30:35;;;;;;;11.85;4.50;;;2.70;88.20;;;;;;5038350;28;20045;-40
2021/04/26 00:33:06;;;;;;;11.50;3.90;;;2.60;87.80;;;;;;5031268;28;20049;-40
2021/04/26 00:35:38;;;;;;;10.13;4.50;;;2.60;88.20;;;;;;5039307;28;20060;-40
2021/04/26 00:38:12;;;;;;;12.48;4.38;;;2.60;88.70;;;;;;5039165;28;20484;-40
2021/04/26 00:40:41;;;;;;;8.35;4.43;;;2.50;87.90;;;;;;5039367;28;20269;-40
2021/04/26 00:43:10;;;;;;;11.13;4.20;;;2.50;88.50;;;;;;5032341;28;20902;-40
2021/04/26 00:45:40;;;;;;;13.27;4.30;;;2.50;89.50;;;;;;5024368;28;20049;-41
2021/04/26 00:48:07;;;;;;;8.07;3.75;;;2.50;88.40;;;;;;5022059;28;20445;-40
2021/04/26 00:50:55;;;;;;;9.80;4.57;;;2.50;89.10;;;;;;5017913;28;20049;-41
2021/04/26 00:53:23;;;;;;;12.70;4.60;;;2.50;89.90;;;;;;5019488;28;20685;-40
2021/04/26 00:55:53;;;;;;;10.77;4.45;;;2.50;89.30;;;;;;5016627;28;20052;-40
2021/04/26 00:58:22;;;;;;;;;;;2.40;88.50;;;;;;5015283;28;20072;-40
2021/04/26 01:00:51;;;;;;;11.63;4.30;;;2.40;89.40;;;;;;5014624;28;20011;-40
2021/04/26 01:03:20;;;;;;;9.88;3.55;;;2.30;88.70;;;;;;5016716;28;20049;-40
2021/04/26 01:05:49;;;;;;;9.50;4.30;;;2.30;88.00;;;;;;5024450;28;20083;-40
2021/04/26 01:08:17;;;;;;;9.35;4.25;;;2.30;88.60;;;;;;5019329;28;20120;-40
2021/04/26 01:11:07;;;;;;;9.43;4.35;;;2.20;88.90;;;;;;5016676;28;20045;-40
2021/04/26 01:13:59;;;;;;;9.23;4.45;;;2.20;89.60;;;;;;5028483;28;20054;-40
2021/04/26 01:16:33;;;;;;;9.23;4.32;;;2.20;89.30;;;;;;5014052;28;20442;-40
2021/04/26 01:19:11;;;;;;;8.40;3.60;;;2.20;89.20;;;;;;5014270;28;20192;-39
2021/04/26 01:21:53;;;;;;;9.80;3.90;;;2.10;88.50;;;;;;5015065;28;20065;-40
2021/04/26 01:24:33;;;;;;;;;;;2.10;88.20;;;;;;5034414;28;20108;-40
2021/04/26 01:27:16;;;;;;;12.43;4.10;;;2.00;89.60;;;;;;5024947;28;20294;-40
2021/04/26 01:30:12;;;;;;;9.25;4.28;;;2.00;88.90;;;;;;5007333;28;20170;-40
2021/04/26 01:33:16;;;;;;;6.72;4.10;;;1.90;89.60;;;;;;5017957;28;20045;-40
2021/04/26 01:35:51;;;;;;;6.97;3.65;;;1.90;90.00;;;;;;5029961;28;20045;-41
2021/04/26 01:38:30;;;;;;;12.15;4.10;;;1.80;89.60;;;;;;5014065;28;20050;-39
2021/04/26 01:41:07;;;;;;;10.75;5.25;;;1.80;89.70;;;;;;5015728;28;20132;-39
2021/04/26 01:43:38;;;;;;;8.02;4.28;;;1.70;90.30;;;;;;5028071;28;20135;-39
2021/04/26 01:46:11;;;;;;;13.35;3.92;;;1.70;90.10;;;;;;5035103;28;20061;-40
2021/04/26 01:48:46;;;;;;;8.90;3.72;;;1.60;90.00;;;;;;5010293;28;20065;-40
2021/04/26 01:51:18;;;;;;;11.45;3.88;;;1.60;90.20;;;;;;5024545;28;20094;-40
2021/04/26 01:53:50;;;;;;;10.52;4.47;;;1.60;90.10;;;;;;5033557;28;20371;-40
2021/04/26 01:56:23;;;;;;;8.70;4.60;;;1.60;90.30;;;;;;5010611;28;20049;-40
2021/04/26 01:58:56;;;;;;;11.10;4.93;;;1.60;90.00;;;;;;5036841;28;20045;-39
2021/04/26 02:01:24;;;;;;;6.68;3.92;;;1.60;90.10;;;;;;5019370;28;20049;-39
2021/04/26 02:04:01;;;;;;;14.98;4.25;;;1.60;90.20;;;;;;5016330;28;20073;-42
2021/04/26 02:06:46;;;;;;;16.67;5.18;;;1.50;89.70;;;;;;5012818;28;20045;-40
2021/04/26 02:09:19;;;;;;;11.88;4.47;;;1.50;89.70;;;;;;5016737;28;20053;-39
2021/04/26 02:11:48;;;;;;;10.30;4.53;;;1.40;89.80;;;;;;5011888;28;20076;-40
2021/04/26 02:14:23;;;;;;;9.55;5.45;;;1.40;90.30;;;;;;5019000;28;20123;-41
2021/04/26 02:16:52;;;;;;;15.10;4.97;;;1.50;90.70;;;;;;5011365;28;20076;-41
2021/04/26 02:19:20;;;;;;;10.70;4.95;;;1.50;90.60;;;;;;5017136;28;20155;-39
2021/04/26 02:21:47;;;;;;;9.18;4.63;;;1.40;90.30;;;;;;5028259;28;20046;-40
2021/04/26 02:24:18;;;;;;;14.02;4.63;;;1.40;90.60;;;;;;5013075;28;20602;-40
2021/04/26 02:26:48;;;;;;;11.93;5.60;;;1.40;90.20;;;;;;5028419;28;20517;-40
2021/04/26 02:29:18;;;;;;;8.88;4.55;;;1.40;90.50;;;;;;5017706;28;20049;-40
2021/04/26 02:31:50;;;;;;;9.52;4.90;;;1.30;90.20;;;;;;5029116;28;20053;-40
2021/04/26 02:34:42;;;;;;;8.73;4.20;;;1.30;90.40;;;;;;5025599;28;20525;-39
2021/04/26 02:37:30;;;;;;;9.13;4.07;;;1.40;90.30;;;;;;5016767;28;20054;-39
2021/04/26 02:40:07;;;;;;;11.95;5.18;;;1.30;90.40;;;;;;5023504;28;20706;-39
2021/04/26 02:42:41;;;;;;;8.98;5.05;;;1.30;90.40;;;;;;5025810;28;20061;-40
2021/04/26 02:45:19;;;;;;;13.00;5.00;;;1.30;91.00;;;;;;5027025;28;20084;-39
2021/04/26 02:47:49;;;;;;;9.25;4.95;;;1.30;91.10;;;;;;5024545;28;20049;-40
2021/04/26 02:50:23;;;;;;;10.10;5.10;;;1.40;91.10;;;;;;5033857;28;20390;-40
2021/04/26 02:53:04;;;;;;;9.77;5.00;;;1.30;91.30;;;;;;5026777;28;20080;-40
2021/04/26 02:55:33;;;;;;;7.15;4.40;;;1.30;91.00;;;;;;5027068;28;20045;-41
2021/04/26 02:58:01;;;;;;;13.23;5.13;;;1.30;90.80;;;;;;5037337;28;20056;-41
2021/04/26 03:00:33;;;;;;;12.52;5.05;;;1.30;91.20;;;;;;5019714;28;20079;-42
2021/04/26 03:03:30;;;;;;;10.95;5.13;;;1.30;91.10;;;;;;5044827;28;20199;-41
2021/04/26 03:06:03;;;;;;;13.07;5.00;;;1.30;91.20;;;;;;5025552;28;20041;-38
2021/04/26 03:08:34;;;;;;;9.15;4.97;;;1.30;91.30;;;;;;5033266;28;20160;-42
2021/04/26 03:11:08;;;;;;;12.57;4.95;;;1.30;91.20;;;;;;5026501;28;20159;-39
2021/04/26 03:13:40;;;;;;;9.75;5.03;;;1.20;91.10;;;;;;5047727;28;20049;-40
2021/04/26 03:16:15;;;;;;;10.38;5.57;;;1.20;91.30;;;;;;5042746;28;20041;-39
2021/04/26 03:18:45;;;;;;;12.10;5.60;;;1.20;91.40;;;;;;5041345;28;20056;-40
2021/04/26 03:21:12;;;;;;;13.40;4.75;;;1.10;90.90;;;;;;5037430;28;20060;-39
2021/04/26 03:23:45;;;;;;;11.50;5.35;;;1.10;91.10;;;;;;5025323;28;20048;-39
2021/04/26 03:26:13;;;;;;;12.77;5.53;;;1.20;91.10;;;;;;5018355;28;20131;-39
2021/04/26 03:28:42;;;;;;;11.07;4.75;;;1.20;91.70;;;;;;5038412;28;20045;-40
2021/04/26 03:31:11;;;;;;;13.98;5.75;;;1.10;91.90;;;;;;5040404;28;20053;-40
2021/04/26 03:33:48;;;;;;;11.20;5.45;;;1.20;92.10;;;;;;5033210;28;20401;-39
2021/04/26 03:36:21;;;;;;;12.73;5.70;;;1.20;92.10;;;;;;5027999;28;20044;-39
2021/04/26 03:38:51;;;;;;;9.13;5.47;;;1.20;92.00;;;;;;5036045;28;20053;-40
2021/04/26 03:41:25;;;;;;;12.00;5.57;;;1.20;92.20;;;;;;5017639;28;20060;-40
2021/04/26 03:43:55;;;;;;;9.65;4.95;;;1.20;92.10;;;;;;5038114;28;20795;-40
2021/04/26 03:46:28;;;;;;;9.05;5.00;;;1.20;92.30;;;;;;5023730;28;20045;-39
2021/04/26 03:50:14;;;;;;;8.93;5.13;;;1.20;91.80;;;;;;5023517;28;20458;-39
2021/04/26 03:53:18;;;;;;;9.65;5.10;;;1.20;92.00;;;;;;4986935;28;20077;-39
2021/04/26 03:56:05;;;;;;;9.93;4.85;;;1.20;92.10;;;;;;4986225;28;20138;-40
2021/04/26 03:58:34;;;;;;;10.27;4.88;;;1.20;92.10;;;;;;4977384;28;20153;-40
2021/04/26 04:01:03;;;;;;;16.15;6.40;;;1.20;92.20;;;;;;4974720;28;20046;-39
2021/04/26 04:03:29;;;;;;;11.00;5.80;;;1.20;92.20;;;;;;4989729;28;20112;-40
2021/04/26 04:06:00;;;;;;;11.05;5.78;;;1.20;92.20;;;;;;4970439;28;20046;-40
2021/04/26 04:09:06;;;;;;;10.23;5.38;;;1.20;92.20;;;;;;4955433;28;20089;-39
2021/04/26 04:11:54;;;;;;;9.43;4.40;;;1.20;92.10;;;;;;4960937;28;20059;-39
2021/04/26 04:14:36;;;;;;;6.95;5.18;;;1.20;92.50;;;;;;4965530;28;20042;-39
2021/04/26 04:17:05;;;;;;;10.57;5.07;;;1.10;92.10;;;;;;4963173;28;20496;-40
2021/04/26 04:19:36;;;;;;;7.47;4.35;;;1.00;91.80;;;;;;4958877;28;20061;-39
2021/04/26 04:22:13;;;;;;;9.00;5.25;;;1.00;91.50;;;;;;4945464;28;20100;-40
2021/04/26 04:24:50;;;;;;;9.27;5.68;;;1.00;91.50;;;;;;4964398;28;20049;-40
2021/04/26 04:27:19;;;;;;;12.50;5.25;;;1.00;91.80;;;;;;4932295;29;20158;-40
2021/04/26 04:29:50;;;;;;;9.93;5.63;;;0.90;91.60;;;;;;4926974;29;20505;-39
2021/04/26 04:32:41;;;;;;;10.18;4.90;;;0.90;91.30;;;;;;4934149;28;20504;-40
2021/04/26 04:35:35;;;;;;;8.20;5.07;;;0.90;91.30;;;;;;4924488;29;20401;-39
2021/04/26 04:38:25;;;;;;;7.18;4.35;;;0.80;91.30;;;;;;4916672;29;20043;-40
2021/04/26 04:41:13;;;;;;;9.82;5.20;;;0.90;91.40;;;;;;4928545;29;20073;-39
2021/04/26 04:43:43;;;;;;;12.32;5.90;;;0.80;91.30;;;;;;4911301;29;20403;-41
2021/04/26 04:46:14;;;;;;;12.45;5.95;;;0.90;91.30;;;;;;4953717;28;20081;-39
2021/04/26 04:48:50;;;;;;;9.80;5.97;;;0.90;91.50;;;;;;4950054;28;20039;-40
2021/04/26 04:51:21;;;;;;;11.70;6.90;;;0.90;91.40;;;;;;4962047;28;20141;-44
2021/04/26 04:54:00;;;;;;;10.43;6.78;;;1.00;91.50;;;;;;4964860;28;20082;-43
2021/04/26 04:56:39;;;;;;;12.43;7.88;;;1.10;91.30;;;;;;4950730;28;20051;-42
2021/04/26 04:59:07;;;;;;;15.13;7.22;;;1.10;91.30;;;;;;4963898;28;20125;-42
2021/04/26 05:01:38;;;;;;;11.65;6.22;;;1.20;91.60;;;;;;4958214;28;20098;-43
2021/04/26 05:04:27;;;;;;;12.15;5.40;;;1.20;91.80;;;;;;4964622;28;20062;-43
2021/04/26 05:07:12;;;;;;;11.10;6.07;;;1.30;91.90;;;;;;4964918;28;20507;-43
2021/04/26 05:10:17;;;;;;;13.10;6.80;;;1.40;92.30;;;;;;4946004;28;20047;-43
2021/04/26 05:13:25;;;;;;;9.23;5.70;;;1.60;93.10;;;;;;4916844;29;20063;-43
2021/04/26 05:16:02;;;;;;;12.30;5.72;;;1.80;93.20;;;;;;4911267;29;20052;-45
2021/04/26 05:18:28;;;;;;;10.73;4.88;;;2.00;93.10;;;;;;4922925;29;20047;-41
2021/04/26 05:20:57;;;;;;;10.82;5.40;;;2.40;92.80;;;;;;4915703;29;20139;-45
2021/04/26 05:23:25;;;;;;;8.45;4.00;;;2.70;92.40;;;;;;4922195;29;20122;-43
2021/04/26 05:25:57;;;;;;;9.13;4.35;;;2.90;92.00;;;;;;4905388;29;20052;-46
2021/04/26 05:28:27;;;;;;;13.05;4.10;;;3.20;91.60;;;;;;4917544;29;20051;-46
2021/04/26 05:31:00;;;;;;;10.63;3.97;;;3.40;91.10;;;;;;4908645;29;20456;-44
2021/04/26 05:33:26;;;;;;;23.60;14.13;;;3.60;91.00;;;;;;4919643;29;20059;-40
2021/04/26 05:35:56;;;;;;;25.13;16.23;;;3.80;90.90;;;;;;4922595;29;20051;-40
2021/04/26 05:38:33;;;;;;;;;;;4.00;90.80;;;;;;4912988;29;20051;-41
2021/04/26 05:41:07;;;;;;;6.28;3.35;;;4.20;90.10;;;;;;4939416;28;19930;-40
2021/04/26 05:43:36;;;;;;;11.73;3.30;;;4.30;90.40;;;;;;4991968;28;20428;-41
2021/04/26 05:46:07;;;;;;;8.90;3.80;;;4.50;90.30;;;;;;5015988;28;20053;-40
2021/04/26 05:48:39;;;;;;;9.23;3.45;;;4.70;90.10;;;;;;5030432;28;20045;-42
2021/04/26 05:51:11;;;;;;;9.32;3.20;;;4.80;89.70;;;;;;5036683;28;20103;-41
2021/04/26 05:53:39;;;;;;;7.85;3.42;;;5.10;89.70;;;;;;5029852;28;20144;-42
2021/04/26 05:56:07;;;;;;;9.93;3.15;;;5.30;88.80;;;;;;5036997;28;20045;-41
2021/04/26 05:58:33;;;;;;;7.85;3.08;;;5.50;88.90;;;;;;5044389;28;20056;-42
2021/04/26 06:01:03;;;;;;;30.23;21.27;;;5.70;88.20;;;;;;5041425;28;20045;-42
2021/04/26 06:03:31;;;;;;;14.30;7.63;;;5.80;87.30;;;;;;5037604;28;20068;-41
2021/04/26 06:06:05;;;;;;;10.85;3.03;;;6.00;87.00;;;;;;5038064;28;20053;-43
2021/04/26 06:08:35;;;;;;;13.13;5.50;;;6.10;84.90;;;;;;5038057;28;20509;-41
2021/04/26 06:11:02;;;;;;;12.93;6.78;;;6.30;86.80;;;;;;5036877;28;20064;-42
2021/04/26 06:13:31;;;;;;;11.65;2.80;;;6.50;85.40;;;;;;5040061;28;20053;-42
2021/04/26 06:16:00;;;;;;;11.13;3.00;;;6.60;84.30;;;;;;5041057;28;20060;-41
2021/04/26 06:18:30;;;;;;;7.32;2.88;;;6.90;83.90;;;;;;5034959;28;20115;-42
2021/04/26 06:21:06;;;;;;;9.60;3.28;;;7.00;83.90;;;;;;5032471;28;20046;-42
2021/04/26 06:23:36;;;;;;;7.03;2.83;;;7.20;83.30;;;;;;5019338;28;20088;-41
2021/04/26 06:26:05;;;;;;;19.63;11.35;;;7.40;82.50;;;;;;5021845;28;20045;-43
2021/04/26 06:28:32;;;;;;;28.92;18.35;;;7.50;82.30;;;;;;5039223;28;20172;-42
2021/04/26 06:31:02;;;;;;;6.95;2.78;;;7.80;82.00;;;;;;5040871;28;20542;-41
2021/04/26 06:33:29;;;;;;;6.53;2.55;;;8.00;80.60;;;;;;5033955;28;20600;-42
2021/04/26 06:35:55;;;;;;;9.48;3.58;;;8.20;80.70;;;;;;5035715;28;20408;-42
2021/04/26 06:38:23;;;;;;;6.13;2.35;;;8.40;79.00;;;;;;5041397;28;20057;-42
2021/04/26 06:40:55;;;;;;;6.45;2.40;;;8.80;79.50;;;;;;5040092;28;20041;-44
2021/04/26 06:43:24;;;;;;;8.32;4.28;;;9.10;78.30;;;;;;5036586;28;20048;-42
2021/04/26 06:45:54;;;;;;;12.80;6.93;;;9.40;76.70;;;;;;5045781;28;20045;-45
2021/04/26 06:48:24;;;;;;;36.45;27.38;;;9.60;76.80;;;;;;5032779;28;20442;-45
2021/04/26 06:50:58;;;;;;;6.05;2.25;;;9.70;74.70;;;;;;5035509;28;20117;-42
2021/04/26 06:53:27;;;;;;;17.05;8.93;;;9.90;73.20;;;;;;5034044;28;20057;-47
2021/04/26 06:56:02;;;;;;;14.90;8.77;;;10.10;72.60;;;;;;5042603;28;20045;-41
2021/04/26 06:58:33;;;;;;;10.55;3.85;;;10.40;72.10;;;;;;5037330;28;20071;-42
2021/04/26 07:01:00;;;;;;;5.18;1.85;;;10.70;71.50;;;;;;5042025;28;20622;-42
2021/04/26 07:03:31;;;;;;;12.02;6.70;;;11.00;70.60;;;;;;5038164;28;20493;-42
2021/04/26 07:05:58;;;;;;;16.15;8.57;;;11.20;68.20;;;;;;5045601;28;20099;-41
2021/04/26 07:08:27;;;;;;;5.78;1.90;;;11.60;68.40;;;;;;5037845;28;20680;-42
2021/04/26 07:10:55;;;;;;;6.18;2.13;;;11.80;66.70;;;;;;5025215;28;20061;-41
2021/04/26 07:13:24;;;;;;;22.50;16.27;;;12.00;65.20;;;;;;5046148;28;20508;-42
2021/04/26 07:15:53;;;;;;;8.55;5.28;;;12.30;63.00;;;;;;5027154;28;20053;-45
2021/04/26 07:18:23;;;;;;;11.35;5.38;;;12.50;62.70;;;;;;5041901;28;20052;-44
2021/04/26 07:20:52;;;;;;;26.42;18.85;;;12.80;62.40;;;;;;5054483;28;20048;-45
2021/04/26 07:23:21;;;;;;;7.07;3.25;;;12.90;58.30;;;;;;5060655;28;20064;-44
2021/04/26 07:25:51;;;;;;;19.10;10.73;;;13.10;58.90;;;;;;5034709;28;20052;-44
2021/04/26 07:28:22;;;;;;;6.45;1.88;;;13.20;60.30;;;;;;5047009;28;20087;-43
2021/04/26 07:30:52;;;;;;;20.02;11.55;;;13.10;58.50;;;;;;5033725;28;20053;-47
2021/04/26 07:33:23;;;;;;;14.10;7.43;;;13.00;58.30;;;;;;5048064;28;20056;-44
2021/04/26 07:35:53;;;;;;;11.85;5.45;;;13.20;57.90;;;;;;5049836;28;20122;-43
2021/04/26 07:38:23;;;;;;;11.05;4.93;;;13.20;57.10;;;;;;5036961;28;20118;-44
2021/04/26 07:40:50;;;;;;;8.32;3.47;;;13.50;58.00;;;;;;5033030;28;20049;-43
2021/04/26 07:43:41;;;;;;;16.20;9.55;;;13.40;57.90;;;;;;5047902;28;20053;-42
2021/04/26 07:46:08;;;;;;;11.25;7.85;;;13.60;55.70;;;;;;5042928;28;20110;-44
2021/04/26 07:48:39;;;;;;;13.25;10.05;;;13.80;56.50;;;;;;5040446;28;20048;-43
2021/04/26 07:51:07;;;;;;;8.57;5.10;;;14.00;54.60;;;;;;5031764;28;20501;-45
2021/04/26 07:53:36;;;;;;;23.20;15.82;;;14.10;54.30;;;;;;5048970;28;20156;-46
2021/04/26 07:56:04;;;;;;;17.60;14.65;;;14.40;53.80;;;;;;5049975;28;20060;-49
2021/04/26 07:58:30;;;;;;;6.65;2.90;;;14.50;54.00;;;;;;5043251;28;20102;-46
2021/04/26 08:01:19;;;;;;;8.93;4.47;;;14.70;52.60;;;;;;4952354;28;20071;-47
2021/04/26 08:04:06;;;;;;;5.80;1.60;;;14.50;50.60;;;;;;4945181;28;20091;-50
2021/04/26 08:06:52;;;;;;;16.90;11.63;;;14.70;51.30;;;;;;4891047;29;20057;-49
2021/04/26 08:09:39;;;;;;;6.13;1.73;;;15.10;50.80;;;;;;4871475;29;20076;-51
2021/04/26 08:12:41;;;;;;;3.53;1.20;;;15.20;50.30;;;;;;4815593;29;20117;-46
2021/04/26 08:15:35;;;;;;;8.07;3.05;;;15.30;46.60;;;;;;4762097;30;20138;-47
2021/04/26 08:18:25;;;;;;;7.20;2.45;;;14.50;43.10;;;;;;4724831;30;20813;-47
2021/04/26 08:21:29;;;;;;;7.40;2.05;;;13.70;47.50;;;;;;5120452;27;21027;-47
2021/04/26 08:24:20;;;;;;;9.27;3.45;;;13.90;47.70;;;;;;5047858;28;20052;-47
2021/04/26 08:27:07;;;;;;;71.35;60.70;;;13.90;48.00;;;;;;4945737;28;20894;-47
2021/04/26 08:29:57;;;;;;;4.72;2.17;;;13.40;47.20;;;;;;4863797;29;20577;-46
2021/04/26 08:32:46;;;;;;;5.82;2.40;;;13.50;47.20;;;;;;4828082;29;20069;-42
2021/04/26 08:35:47;;;;;;;6.75;2.00;;;13.60;47.80;;;;;;4790437;29;20050;-43
2021/04/26 08:38:34;;;;;;;5.20;1.58;;;14.30;47.20;;;;;;4736542;30;20882;-43
2021/04/26 08:41:25;;;;;;;3.75;1.50;;;14.80;46.00;;;;;;4723045;30;20188;-47
2021/04/26 08:44:29;;;;;;;4.68;1.75;;;15.60;43.70;;;;;;5114096;27;829144;-48
2021/04/26 08:47:19;;;;;;;6.38;1.95;;;17.20;35.60;;;;;;5095767;28;20781;-44
2021/04/26 08:50:21;;;;;;;5.47;2.15;;;16.90;38.60;;;;;;5012723;28;20048;-44
2021/04/26 08:53:11;;;;;;;5.95;3.17;;;16.70;37.50;;;;;;4978432;28;20062;-45
2021/04/26 08:56:12;;;;;;;14.77;10.13;;;17.00;37.70;;;;;;4938073;28;20504;-46
2021/04/26 08:59:12;;;;;;;14.02;10.10;;;16.70;37.40;;;;;;4901755;29;20084;-48
2021/04/26 09:02:05;;;;;;;4.60;1.48;;;15.70;39.10;;;;;;4862277;29;20426;-51
2021/04/26 09:04:34;;;;;;;7.57;4.13;;;14.70;39.80;;;;;;4860951;29;20105;-47
2021/04/26 09:07:14;;;;;;;6.85;2.88;;;14.00;40.40;;;;;;4848159;29;20488;-47
2021/04/26 09:09:47;;;;;;;5.65;1.83;;;13.40;42.30;;;;;;4847943;29;20112;-48
2021/04/26 09:12:29;;;;;;;5.05;1.95;;;14.00;42.40;;;;;;4847638;29;21043;-46
2021/04/26 09:15:03;;;;;;;5.30;1.63;;;15.00;41.00;;;;;;4847925;29;20045;-46
2021/04/26 09:17:41;;;;;;;6.97;2.25;;;16.00;41.40;;;;;;4841167;29;20065;-47
2021/04/26 09:20:19;;;;;;;4.13;1.60;;;15.80;38.60;;;;;;4828984;29;20617;-46
2021/04/26 09:23:01;;;;;;;5.10;1.60;;;15.30;37.80;;;;;;4878576;29;20314;-45
2021/04/26 09:25:35;;;;;;;6.05;1.88;;;15.60;37.90;;;;;;4934333;28;20133;-44
2021/04/26 09:28:16;;;;;;;4.68;1.90;;;15.90;38.60;;;;;;4995087;28;20743;-47
2021/04/26 09:30:54;;;;;;;3.75;1.50;;;16.40;37.90;;;;;;4992684;28;20054;-47
2021/04/26 09:33:35;;;;;;;5.47;1.92;;;16.60;35.60;;;;;;5041284;28;20049;-47
2021/04/26 09:36:19;;;;;;;5.75;2.33;;;16.70;36.60;;;;;;5072240;28;20079;-46
2021/04/26 09:38:53;;;;;;;4.30;1.73;;;17.10;33.80;;;;;;5118673;28;20695;-48
2021/04/26 09:41:33;;;;;;;7.55;2.03;;;17.70;36.20;;;;;;5119263;28;20050;-48
2021/04/26 09:44:02;;;;;;;7.10;2.92;;;17.40;34.30;;;;;;5113423;28;20055;-48
2021/04/26 09:46:45;;;;;;;9.82;7.57;;;17.70;34.20;;;;;;5126158;27;20047;-46
2021/04/26 09:49:27;;;;;;;6.28;1.40;;;17.90;33.70;;;;;;5120756;28;20047;-48
2021/04/26 09:52:12;;;;;;;12.30;8.43;;;18.20;36.00;;;;;;5119979;28;20051;-48
2021/04/26 09:54:44;;;;;;;7.45;2.97;;;18.30;33.50;;;;;;5090587;28;20055;-49
2021/04/26 09:57:11;;;;;;;9.02;4.93;;;18.10;32.50;;;;;;5106713;28;20047;-49
2021/04/26 09:59:40;;;;;;;6.75;2.03;;;18.70;32.30;;;;;;5088601;28;20127;-45
2021/04/26 10:02:09;;;;;;;4.53;1.98;;;18.90;33.00;;;;;;5101450;28;20578;-45
2021/04/26 10:04:37;;;;;;;5.47;1.80;;;18.80;32.50;;;;;;5092044;28;20051;-47
2021/04/26 10:07:09;;;;;;;3.75;2.13;;;18.90;31.70;;;;;;5102829;28;20111;-46
2021/04/26 10:09:37;;;;;;;5.70;1.50;;;18.30;31.10;;;;;;5106742;28;20043;-46
2021/04/26 10:12:14;;;;;;;6.70;1.80;;;18.70;33.30;;;;;;5106765;28;20050;-46
2021/04/26 10:14:43;;;;;;;5.47;1.80;;;19.20;33.10;;;;;;5104827;28;20082;-47
2021/04/26 10:17:15;;;;;;;5.40;1.65;;;19.10;31.90;;;;;;5106096;28;20048;-46
2021/04/26 10:19:51;;;;;;;5.82;1.98;;;19.20;32.20;;;;;;5111708;28;20044;-44
2021/04/26 10:22:38;;;;;;;4.22;1.52;;;19.00;29.70;;;;;;5105217;28;20047;-45
2021/04/26 10:25:09;;;;;;;7.30;1.80;;;19.10;32.20;;;;;;5102437;28;20051;-46
2021/04/26 10:27:45;;;;;;;3.40;1.48;;;19.30;32.00;;;;;;5102848;28;20187;-45
2021/04/26 10:30:19;;;;;;;4.05;1.48;;;18.60;31.00;;;;;;5100053;28;20108;-46
2021/04/26 10:33:05;;;;;;;5.80;1.70;;;19.00;32.90;;;;;;5104423;28;20059;-46
2021/04/26 10:35:44;;;;;;;7.38;3.95;;;19.10;30.70;;;;;;5103841;28;20039;-46
2021/04/26 10:38:51;;;;;;;11.15;3.97;;;19.30;31.20;;;;;;5079839;28;20050;-49
2021/04/26 10:41:48;;;;;;;18.48;13.98;;;19.90;30.30;;;;;;5112778;28;20139;-46
2021/04/26 10:44:39;;;;;;;6.32;1.60;;;19.90;27.50;;;;;;5105953;28;20211;-47
2021/04/26 10:47:24;;;;;;;3.35;1.45;;;20.00;29.80;;;;;;5103121;28;20196;-46
2021/04/26 10:50:17;;;;;;;5.65;1.67;;;19.40;28.60;;;;;;5106345;28;20048;-47
2021/04/26 10:52:55;;;;;;;5.53;1.70;;;19.10;31.10;;;;;;5093146;28;20073;-51
2021/04/26 10:55:24;;;;;;;4.88;2.13;;;19.60;30.20;;;;;;5103356;28;20058;-48
2021/04/26 10:58:02;;;;;;;6.30;3.05;;;19.80;30.10;;;;;;5104706;28;20040;-48
2021/04/26 11:00:37;;;;;;;5.63;3.00;;;19.30;28.60;;;;;;5104129;28;20407;-45
2021/04/26 11:03:10;;;;;;;10.00;2.45;;;19.60;29.70;;;;;;5106544;28;20154;-45
2021/04/26 11:06:07;;;;;;;5.82;1.48;;;19.50;28.40;;;;;;5106625;28;20062;-47
2021/04/26 11:08:40;;;;;;;10.55;2.50;;;19.40;32.10;;;;;;5106582;28;20401;-44
2021/04/26 11:11:23;;;;;;;4.47;1.67;;;19.60;30.00;;;;;;5087914;28;20044;-46
2021/04/26 11:13:58;;;;;;;6.78;1.52;;;20.00;30.10;;;;;;5101975;28;20551;-44
2021/04/26 11:16:32;;;;;;;5.70;1.48;;;19.70;27.60;;;;;;5104301;28;20039;-41
2021/04/26 11:19:07;;;;;;;6.40;1.73;;;19.80;28.30;;;;;;5049404;28;20047;-45
2021/04/26 11:21:43;;;;;;;4.60;1.23;;;18.90;28.50;;;;;;5087623;28;20522;-42
2021/04/26 11:24:37;;;;;;;8.10;1.60;;;19.50;29.90;;;;;;5108618;28;20048;-46
2021/04/26 11:27:19;;;;;;;5.60;1.83;;;20.20;29.40;;;;;;5089260;28;20127;-44
2021/04/26 11:29:49;;;;;;;5.32;1.55;;;20.30;28.00;;;;;;5105610;28;20044;-46
2021/04/26 11:32:19;;;;;;;5.75;1.77;;;20.10;28.40;;;;;;5106511;28;20043;-48
2021/04/26 11:34:48;;;;;;;5.10;1.40;;;19.90;27.50;;;;;;5104685;28;20056;-47
2021/04/26 11:37:28;;;;;;;5.75;1.63;;;20.40;28.50;;;;;;5097067;28;20059;-50
2021/04/26 11:39:55;;;;;;;3.15;1.30;;;20.50;27.90;;;;;;5099857;28;20043;-45
2021/04/26 11:42:32;;;;;;;3.80;1.40;;;20.50;27.70;;;;;;5105036;28;20184;-46
2021/04/26 11:45:06;;;;;;;4.50;1.30;;;20.70;27.40;;;;;;5100923;28;20380;-45
2021/04/26 11:47:33;;;;;;;3.13;1.30;;;20.60;27.60;;;;;;5104422;28;20043;-47
2021/04/26 11:50:01;;;;;;;3.40;1.30;;;20.70;27.80;;;;;;5104741;28;20050;-46
2021/04/26 11:52:32;;;;;;;2.88;1.20;;;20.50;27.00;;;;;;5068349;28;20044;-44
2021/04/26 11:55:02;;;;;;;;;;;20.80;27.50;;;;;;5029084;28;20044;-42
2021/04/26 11:57:29;;;;;;;3.10;1.20;;;18.90;25.30;;;;;;5085349;28;19947;-46
2021/04/26 11:59:57;;;;;;;3.33;1.45;;;19.60;28.80;;;;;;5101911;28;20058;-47
2021/04/26 12:02:38;;;;;;;3.90;1.60;;;19.60;27.20;;;;;;5102380;28;20062;-43
2021/04/26 12:05:09;;;;;;;2.97;1.20;;;19.00;26.80;;;;;;5104061;28;20090;-45
2021/04/26 12:07:36;;;;;;;2.78;1.17;;;19.90;27.00;;;;;;5103753;28;20071;-47
2021/04/26 12:10:18;;;;;;;3.13;1.30;;;19.70;27.10;;;;;;5093716;28;20099;-45
2021/04/26 12:12:47;;;;;;;;;;;20.50;27.80;;;;;;5091251;28;20092;-44
2021/04/26 12:15:24;;;;;;;8.85;7.80;;;19.70;26.50;;;;;;5105840;28;19928;-46
2021/04/26 12:17:58;;;;;;;4.53;2.53;;;20.10;27.90;;;;;;5097976;28;20491;-46
2021/04/26 12:20:30;;;;;;;5.30;2.40;;;19.30;27.20;;;;;;5083608;28;20792;-49
2021/04/26 12:23:23;;;;;;;4.05;1.45;;;19.50;27.10;;;;;;5103464;28;20148;-50
2021/04/26 12:25:50;;;;;;;2.83;1.30;;;19.40;26.10;;;;;;5104518;28;20097;-49
2021/04/26 12:28:17;;;;;;;4.90;2.17;;;19.80;26.90;;;;;;5098293;28;20293;-51
2021/04/26 12:30:49;;;;;;;4.68;1.70;;;19.80;26.20;;;;;;5089871;28;20550;-47
2021/04/26 12:33:30;;;;;;;3.63;1.73;;;19.40;26.00;;;;;;5100446;28;20071;-49
2021/04/26 12:35:57;;;;;;;3.33;1.75;;;20.30;27.50;;;;;;5103152;28;20152;-47
2021/04/26 12:38:29;;;;;;;10.88;9.32;;;19.80;26.30;;;;;;5107790;28;20119;-48
2021/04/26 12:40:58;;;;;;;9.02;7.03;;;20.60;26.50;;;;;;5106265;28;20050;-48
2021/04/26 12:43:34;;;;;;;7.97;4.10;;;20.80;26.40;;;;;;5104592;28;20094;-46
2021/04/26 12:46:11;;;;;;;3.40;2.13;;;21.20;26.10;;;;;;5097046;28;20044;-51
2021/04/26 12:48:38;;;;;;;7.90;6.72;;;21.20;25.80;;;;;;5102388;28;20164;-48
2021/04/26 12:51:08;;;;;;;9.48;4.53;;;21.30;26.10;;;;;;5102384;28;20074;-48
2021/04/26 12:53:37;;;;;;;;;;;21.50;26.70;;;;;;5053905;28;20167;-46
2021/04/26 12:56:11;;;;;;;5.28;2.85;;;21.40;26.50;;;;;;5052563;28;19931;-48
2021/04/26 12:58:45;;;;;;;4.18;1.80;;;21.60;25.90;;;;;;5104962;28;20047;-46
2021/04/26 13:01:22;;;;;;;3.20;1.63;;;21.30;26.60;;;;;;5091514;28;20043;-48
2021/04/26 13:03:48;;;;;;;3.25;1.55;;;21.80;26.10;;;;;;5100421;28;20540;-47
2021/04/26 13:06:25;;;;;;;4.13;2.47;;;21.70;25.90;;;;;;5098862;28;20059;-50
2021/04/26 13:09:04;;;;;;;3.85;1.90;;;20.80;24.80;;;;;;5103875;28;20128;-48
2021/04/26 13:11:37;;;;;;;4.22;1.73;;;20.40;26.10;;;;;;5085439;28;20059;-48
2021/04/26 13:14:11;;;;;;;4.15;1.52;;;20.30;25.50;;;;;;5104330;28;20050;-47
2021/04/26 13:16:42;;;;;;;4.25;1.65;;;20.70;26.00;;;;;;5105304;28;20054;-48
2021/04/26 13:19:12;;;;;;;4.68;2.55;;;20.20;24.90;;;;;;5099220;28;20741;-48
2021/04/26 13:21:44;;;;;;;5.87;2.57;;;20.00;25.90;;;;;;5089519;28;20492;-47
2021/04/26 13:24:16;;;;;;;9.60;7.22;;;20.50;26.80;;;;;;5096498;28;20174;-46
2021/04/26 13:26:43;;;;;;;4.43;2.03;;;20.90;26.20;;;;;;5094254;28;21379;-49
2021/04/26 13:29:15;;;;;;;5.45;3.53;;;20.60;24.90;;;;;;5047679;28;20044;-44
2021/04/26 13:31:46;;;;;;;3.92;2.00;;;21.10;26.50;;;;;;5090782;28;20589;-45
2021/04/26 13:34:13;;;;;;;7.45;2.47;;;21.30;26.30;;;;;;5098456;28;20130;-43